createdAt,value
2022-12-07T00:01:20.716Z,3.20
2022-12-07T00:03:48.239Z,3.00
2022-12-07T00:06:15.868Z,2.90
2022-12-07T00:08:44.783Z,2.90
2022-12-07T00:11:13.371Z,2.80
2022-12-07T00:13:42.964Z,2.80
2022-12-07T00:16:11.290Z,2.70
2022-12-07T00:18:38.124Z,2.70
2022-12-07T00:21:10.965Z,3.30
2022-12-07T00:23:37.841Z,3.00
2022-12-07T00:26:11.183Z,2.90
2022-12-07T00:28:40.068Z,3.30
2022-12-07T00:31:11.540Z,2.90
2022-12-07T00:33:39.275Z,3.20
2022-12-07T00:36:16.584Z,2.90
2022-12-07T00:38:45.659Z,3.70
2022-12-07T00:41:14.519Z,2.90
2022-12-07T00:43:44.073Z,3.20
2022-12-07T00:46:11.168Z,3.00
2022-12-07T00:48:38.023Z,3.00
2022-12-07T00:51:07.396Z,2.90
2022-12-07T00:53:41.987Z,2.90
2022-12-07T00:56:09.957Z,3.10
2022-12-07T00:58:36.702Z,3.10
2022-12-07T01:01:06.587Z,3.30
2022-12-07T01:03:36.234Z,3.30
2022-12-07T01:06:11.691Z,4.00
2022-12-07T01:08:40.626Z,3.20
2022-12-07T01:11:08.576Z,3.20
2022-12-07T01:13:35.678Z,3.40
2022-12-07T01:16:05.953Z,3.30
2022-12-07T01:18:33.950Z,3.30
2022-12-07T01:21:07.704Z,3.30
2022-12-07T01:23:36.763Z,3.40
2022-12-07T01:26:05.625Z,3.50
2022-12-07T01:28:32.563Z,3.40
2022-12-07T01:31:15.903Z,3.80
2022-12-07T01:33:48.328Z,3.40
2022-12-07T01:36:21.631Z,3.30
2022-12-07T01:38:49.276Z,3.30
2022-12-07T01:41:18.444Z,3.20
2022-12-07T01:44:13.420Z,3.20
2022-12-07T01:46:42.400Z,3.10
2022-12-07T01:49:23.099Z,3.20
2022-12-07T01:51:50.006Z,3.30
2022-12-07T01:54:18.825Z,3.20
2022-12-07T01:56:52.046Z,4.10
2022-12-07T01:59:21.440Z,3.30
2022-12-07T02:01:48.266Z,3.30
2022-12-07T02:04:15.013Z,3.30
2022-12-07T02:06:42.793Z,3.20
2022-12-07T02:09:11.613Z,3.40
2022-12-07T02:11:38.467Z,3.30
2022-12-07T02:14:07.450Z,3.10
2022-12-07T02:16:46.703Z,3.20
2022-12-07T02:19:35.295Z,3.20
2022-12-07T02:22:08.007Z,3.10
2022-12-07T02:24:47.091Z,3.10
2022-12-07T02:27:34.881Z,3.10
2022-12-07T02:30:02.634Z,3.10
2022-12-07T02:32:46.635Z,3.80
2022-12-07T02:35:16.603Z,3.10
2022-12-07T02:37:49.056Z,3.00
2022-12-07T02:40:35.132Z,3.10
2022-12-07T02:43:21.258Z,3.20
2022-12-07T02:45:47.970Z,3.10
2022-12-07T02:48:15.894Z,3.00
2022-12-07T02:50:52.809Z,3.00
2022-12-07T02:53:35.866Z,3.00
2022-12-07T02:56:19.944Z,3.10
2022-12-07T02:58:59.464Z,3.00
2022-12-07T03:01:32.048Z,2.90
2022-12-07T03:04:15.622Z,2.90
2022-12-07T03:06:50.617Z,3.10
2022-12-07T03:09:37.076Z,3.30
2022-12-07T03:12:28.930Z,3.00
2022-12-07T03:15:05.344Z,2.90
2022-12-07T03:17:36.393Z,3.00
2022-12-07T03:20:06.246Z,2.80
2022-12-07T03:22:33.660Z,3.00
2022-12-07T03:25:09.204Z,2.90
2022-12-07T03:27:40.656Z,2.80
2022-12-07T03:30:08.622Z,3.10
2022-12-07T03:32:43.990Z,2.60
2022-12-07T03:35:13.627Z,2.50
2022-12-07T03:37:58.827Z,2.60
2022-12-07T03:40:38.409Z,2.70
2022-12-07T03:43:05.289Z,2.80
2022-12-07T03:45:42.897Z,2.70
2022-12-07T03:48:14.897Z,2.70
2022-12-07T03:50:46.882Z,2.60
2022-12-07T03:53:23.931Z,2.60
2022-12-07T03:55:50.702Z,2.60
2022-12-07T03:58:21.469Z,2.60
2022-12-07T04:00:48.292Z,2.70
2022-12-07T04:03:15.087Z,2.60
2022-12-07T04:05:44.351Z,2.60
2022-12-07T04:08:11.150Z,2.60
2022-12-07T04:10:37.939Z,2.60
2022-12-07T04:13:04.677Z,2.60
2022-12-07T04:15:34.061Z,2.50
2022-12-07T04:18:00.835Z,2.50
2022-12-07T04:20:27.655Z,2.70
2022-12-07T04:22:54.383Z,2.70
2022-12-07T04:25:23.310Z,2.70
2022-12-07T04:27:50.062Z,2.60
2022-12-07T04:30:16.815Z,2.50
2022-12-07T04:32:45.609Z,2.40
2022-12-07T04:35:12.361Z,3.30
2022-12-07T04:37:40.802Z,2.50
2022-12-07T04:40:09.666Z,2.80
2022-12-07T04:42:38.961Z,2.50
2022-12-07T04:45:06.329Z,2.40
2022-12-07T04:47:33.055Z,2.30
2022-12-07T04:50:00.103Z,2.40
2022-12-07T04:52:29.565Z,2.30
2022-12-07T04:54:56.286Z,2.30
2022-12-07T04:57:23.010Z,2.50
2022-12-07T04:59:49.773Z,2.30
2022-12-07T05:02:16.627Z,2.30
2022-12-07T05:04:43.419Z,2.30
2022-12-07T05:07:10.263Z,2.20
2022-12-07T05:09:39.219Z,2.50
2022-12-07T05:12:06.001Z,2.30
2022-12-07T05:14:35.141Z,2.40
2022-12-07T05:17:05.159Z,2.50
2022-12-07T05:19:31.926Z,2.60
2022-12-07T05:21:58.684Z,2.50
2022-12-07T05:24:30.134Z,2.60
2022-12-07T05:26:57.012Z,2.60
2022-12-07T05:29:23.748Z,2.60
2022-12-07T05:31:50.615Z,2.70
2022-12-07T05:34:19.835Z,2.60
2022-12-07T05:36:51.449Z,2.50
2022-12-07T05:39:20.723Z,2.40
2022-12-07T05:42:08.286Z,2.40
2022-12-07T05:44:35.062Z,2.40
2022-12-07T05:47:03.891Z,2.40
2022-12-07T05:49:30.868Z,2.50
2022-12-07T05:51:57.659Z,2.50
2022-12-07T05:54:26.603Z,2.50
2022-12-07T05:56:53.378Z,2.60
2022-12-07T05:59:27.659Z,2.60
2022-12-07T06:01:56.881Z,2.70
2022-12-07T06:04:23.977Z,2.70
2022-12-07T06:06:55.648Z,2.50
2022-12-07T06:09:23.463Z,2.30
2022-12-07T06:12:08.571Z,2.40
2022-12-07T06:14:35.359Z,2.50
2022-12-07T06:17:02.218Z,2.50
2022-12-07T06:19:29.143Z,2.50
2022-12-07T06:21:56.040Z,3.50
2022-12-07T06:24:25.001Z,2.40
2022-12-07T06:26:51.962Z,2.20
2022-12-07T06:29:21.579Z,2.30
2022-12-07T06:31:48.443Z,2.30
2022-12-07T06:34:17.200Z,2.20
2022-12-07T06:36:44.069Z,2.20
2022-12-07T06:39:17.913Z,2.30
2022-12-07T06:41:46.694Z,2.30
2022-12-07T06:44:15.663Z,2.30
2022-12-07T06:46:42.386Z,2.30
2022-12-07T06:49:09.205Z,2.30
2022-12-07T06:51:42.131Z,2.30
2022-12-07T06:54:12.654Z,2.20
2022-12-07T06:56:39.443Z,2.30
2022-12-07T06:59:07.426Z,2.10
2022-12-07T07:01:34.883Z,2.10
2022-12-07T07:04:01.861Z,2.50
2022-12-07T07:06:28.621Z,2.70
2022-12-07T07:08:55.450Z,2.10
2022-12-07T07:11:24.495Z,2.10
2022-12-07T07:13:51.207Z,2.10
2022-12-07T07:16:17.951Z,2.10
2022-12-07T07:18:47.105Z,2.00
2022-12-07T07:21:18.768Z,2.00
2022-12-07T07:23:45.538Z,2.10
2022-12-07T07:26:18.669Z,2.00
2022-12-07T07:28:48.259Z,2.00
2022-12-07T07:31:15.015Z,1.90
2022-12-07T07:33:41.776Z,1.80
2022-12-07T07:36:10.909Z,1.80
2022-12-07T07:38:37.620Z,1.80
2022-12-07T07:41:04.415Z,1.70
2022-12-07T07:43:33.961Z,1.70
2022-12-07T07:46:00.778Z,1.70
2022-12-07T07:48:29.772Z,1.80
2022-12-07T07:50:58.677Z,1.90
2022-12-07T07:53:26.068Z,1.90
2022-12-07T07:55:54.507Z,2.00
2022-12-07T07:58:23.727Z,1.90
2022-12-07T08:00:53.094Z,2.00
2022-12-07T08:03:19.883Z,1.90
2022-12-07T08:05:46.610Z,2.00
2022-12-07T08:08:16.344Z,1.90
2022-12-07T08:10:45.763Z,2.10
2022-12-07T08:13:12.634Z,1.80
2022-12-07T08:15:40.224Z,2.30
2022-12-07T08:18:07.068Z,1.80
2022-12-07T08:20:37.209Z,1.80
2022-12-07T08:23:04.282Z,1.90
2022-12-07T08:25:31.091Z,2.00
2022-12-07T08:27:57.919Z,2.10
2022-12-07T08:30:24.706Z,2.10
2022-12-07T08:32:51.467Z,2.10
2022-12-07T08:35:18.315Z,2.10
2022-12-07T08:37:45.115Z,2.10
2022-12-07T08:40:16.074Z,2.20
2022-12-07T08:42:45.573Z,2.10
2022-12-07T08:45:13.920Z,2.10
2022-12-07T08:47:53.268Z,2.20
2022-12-07T08:50:22.163Z,2.10
2022-12-07T08:52:56.454Z,2.10
2022-12-07T08:55:25.439Z,3.10
2022-12-07T08:57:52.188Z,2.30
2022-12-07T09:00:19.107Z,2.10
2022-12-07T09:02:46.448Z,2.20
2022-12-07T09:05:16.903Z,2.20
2022-12-07T09:07:47.087Z,2.20
2022-12-07T09:10:16.330Z,2.20
2022-12-07T09:12:43.190Z,2.30
2022-12-07T09:15:10.152Z,2.30
2022-12-07T09:17:38.339Z,2.30
2022-12-07T09:20:08.157Z,2.40
2022-12-07T09:22:35.277Z,2.40
2022-12-07T09:25:02.114Z,2.50
2022-12-07T09:27:33.646Z,2.50
2022-12-07T09:30:02.925Z,2.50
2022-12-07T09:32:29.981Z,2.50
2022-12-07T09:34:56.927Z,2.80
2022-12-07T09:37:23.798Z,2.70
2022-12-07T09:39:52.991Z,2.80
2022-12-07T09:42:25.889Z,2.90
2022-12-07T09:44:52.668Z,2.90
2022-12-07T09:47:19.410Z,3.20
2022-12-07T09:49:48.267Z,2.70
2022-12-07T09:52:26.630Z,2.90
2022-12-07T09:54:53.474Z,2.80
2022-12-07T09:57:24.158Z,2.80
2022-12-07T09:59:50.878Z,2.90
2022-12-07T10:02:37.059Z,2.90
2022-12-07T10:05:08.678Z,2.90
2022-12-07T10:07:38.065Z,2.90
2022-12-07T10:10:07.677Z,2.90
2022-12-07T10:12:56.432Z,2.90
2022-12-07T10:15:25.468Z,2.90
2022-12-07T10:17:52.569Z,3.00
2022-12-07T10:20:24.812Z,3.00
2022-12-07T10:23:09.004Z,3.20
2022-12-07T10:25:41.620Z,3.00
2022-12-07T10:28:08.340Z,3.00
2022-12-07T10:30:47.109Z,3.10
2022-12-07T10:33:35.482Z,3.10
2022-12-07T10:36:15.898Z,3.10
2022-12-07T10:38:50.796Z,3.10
2022-12-07T10:41:17.527Z,3.10
2022-12-07T10:43:55.598Z,3.10
2022-12-07T10:46:48.369Z,3.10
2022-12-07T10:49:21.708Z,3.00
2022-12-07T10:52:07.629Z,3.00
2022-12-07T10:54:43.702Z,3.00
2022-12-07T10:57:13.459Z,3.00
2022-12-07T11:00:08.051Z,3.10
2022-12-07T11:03:08.451Z,3.10
2022-12-07T11:05:47.239Z,3.20
2022-12-07T11:08:37.421Z,3.20
2022-12-07T11:11:04.241Z,3.20
2022-12-07T11:13:38.112Z,3.20
2022-12-07T11:16:23.665Z,3.20
2022-12-07T11:19:28.269Z,3.30
2022-12-07T11:22:12.224Z,3.20
2022-12-07T11:25:03.650Z,3.20
2022-12-07T11:27:37.665Z,3.20
2022-12-07T11:30:24.815Z,3.20
2022-12-07T11:32:57.657Z,3.30
2022-12-07T11:35:57.025Z,3.30
2022-12-07T11:38:35.343Z,3.30
2022-12-07T11:41:14.098Z,3.20
2022-12-07T11:44:08.239Z,3.40
2022-12-07T11:47:07.793Z,3.20
2022-12-07T11:50:09.193Z,3.20
2022-12-07T11:52:53.717Z,3.30
2022-12-07T11:55:31.226Z,3.30
2022-12-07T11:58:04.194Z,3.30
2022-12-07T12:00:30.949Z,3.20
2022-12-07T12:03:31.327Z,3.30
2022-12-07T12:06:00.286Z,3.30
2022-12-07T12:11:51.718Z,3.30
2022-12-07T12:14:41.945Z,3.20
2022-12-07T12:17:36.098Z,3.20
2022-12-07T12:20:45.567Z,3.10
2022-12-07T12:23:13.907Z,3.10
2022-12-07T12:25:51.833Z,3.10
2022-12-07T12:28:20.593Z,3.60
2022-12-07T12:30:47.335Z,3.10
2022-12-07T12:33:46.569Z,3.10
2022-12-07T12:36:18.770Z,3.10
2022-12-07T12:39:09.837Z,3.10
2022-12-07T12:41:39.332Z,3.10
2022-12-07T12:44:15.444Z,3.20
2022-12-07T12:46:53.469Z,3.10
2022-12-07T12:49:20.347Z,3.10
2022-12-07T12:51:50.289Z,3.00
2022-12-07T12:54:30.643Z,3.10
2022-12-07T12:57:06.593Z,3.10
2022-12-07T12:59:37.964Z,3.00
2022-12-07T13:02:30.634Z,3.00
2022-12-07T13:05:03.245Z,2.90
2022-12-07T13:07:48.656Z,3.00
2022-12-07T13:10:43.208Z,3.00
2022-12-07T13:13:15.674Z,3.00
2022-12-07T13:16:07.202Z,3.70
2022-12-07T13:18:34.000Z,3.00
2022-12-07T13:21:10.349Z,3.00
2022-12-07T13:23:42.267Z,2.90
2022-12-07T13:26:36.659Z,2.90
2022-12-07T13:29:21.887Z,2.90
2022-12-07T13:31:52.764Z,3.00
2022-12-07T13:34:31.794Z,2.90
2022-12-07T13:37:02.507Z,3.00
2022-12-07T13:39:33.672Z,3.00
2022-12-07T13:42:02.955Z,3.00
2022-12-07T13:44:39.123Z,3.10
2022-12-07T13:47:08.901Z,4.10
2022-12-07T13:49:53.385Z,3.20
2022-12-07T13:52:27.117Z,3.30
2022-12-07T13:55:05.994Z,3.30
2022-12-07T13:57:35.775Z,3.20
2022-12-07T14:00:06.059Z,3.10
2022-12-07T14:02:38.896Z,3.10
2022-12-07T14:05:18.718Z,3.00
2022-12-07T14:08:04.427Z,2.90
2022-12-07T14:10:37.010Z,2.90
2022-12-07T14:13:15.866Z,2.90
2022-12-07T14:15:42.626Z,2.90
2022-12-07T14:18:29.874Z,2.90
2022-12-07T14:21:06.787Z,2.80
2022-12-07T14:23:36.063Z,2.70
2022-12-07T14:26:16.271Z,2.70
2022-12-07T14:28:46.138Z,2.60
2022-12-07T14:31:29.587Z,2.60
2022-12-07T14:34:00.759Z,2.60
2022-12-07T14:36:27.510Z,2.50
2022-12-07T14:38:57.230Z,2.50
2022-12-07T14:41:42.895Z,2.70
2022-12-07T14:44:35.668Z,2.40
2022-12-07T14:49:47.655Z,2.50
2022-12-07T14:55:32.399Z,2.40
2022-12-07T14:58:02.383Z,2.30
2022-12-07T15:00:31.477Z,2.20
2022-12-07T15:03:00.767Z,2.20
2022-12-07T15:05:27.549Z,2.20
2022-12-07T15:07:56.937Z,2.30
2022-12-07T15:10:32.648Z,2.30
2022-12-07T15:13:18.737Z,2.30
2022-12-07T15:15:45.581Z,2.30
2022-12-07T15:18:12.364Z,2.40
2022-12-07T15:20:39.316Z,2.40
2022-12-07T15:23:08.590Z,2.30
2022-12-07T15:25:35.357Z,2.40
2022-12-07T15:28:04.235Z,2.30
2022-12-07T15:30:35.558Z,2.30
2022-12-07T15:33:07.109Z,2.40
2022-12-07T15:35:33.884Z,2.50
2022-12-07T15:38:00.593Z,2.50
2022-12-07T15:40:27.307Z,2.50
2022-12-07T15:42:54.076Z,2.40
2022-12-07T15:45:20.780Z,2.40
2022-12-07T15:50:38.576Z,2.20
2022-12-07T15:53:05.288Z,2.20
2022-12-07T15:55:32.028Z,2.30
2022-12-07T15:58:01.139Z,2.20
2022-12-07T16:00:27.937Z,2.20
2022-12-07T16:02:54.716Z,2.30
2022-12-07T16:05:21.544Z,2.30
2022-12-07T16:07:50.544Z,2.40
2022-12-07T16:10:17.447Z,2.40
2022-12-07T16:12:46.482Z,2.50
2022-12-07T16:15:13.285Z,2.40
2022-12-07T16:17:42.282Z,2.40
2022-12-07T16:20:09.600Z,2.40
2022-12-07T16:22:36.355Z,2.30
2022-12-07T16:25:03.796Z,2.30
2022-12-07T16:27:33.248Z,2.30
2022-12-07T16:30:02.223Z,2.30
2022-12-07T16:32:28.934Z,2.30
2022-12-07T16:34:57.893Z,3.20
2022-12-07T16:37:27.063Z,2.50
2022-12-07T16:39:55.966Z,2.60
2022-12-07T16:42:22.675Z,2.50
2022-12-07T16:44:54.335Z,2.90
2022-12-07T16:47:23.205Z,2.50
2022-12-07T16:49:50.086Z,2.60
2022-12-07T16:52:21.302Z,2.60
2022-12-07T16:54:51.104Z,2.60
2022-12-07T16:57:23.333Z,2.60
2022-12-07T16:59:52.965Z,2.60
2022-12-07T17:02:20.009Z,2.60
2022-12-07T17:04:51.568Z,2.60
2022-12-07T17:07:18.334Z,2.60
2022-12-07T17:09:49.742Z,2.60
2022-12-07T17:12:16.701Z,2.60
2022-12-07T17:15:02.287Z,2.60
2022-12-07T17:17:29.428Z,2.80
2022-12-07T17:19:56.175Z,2.60
2022-12-07T17:22:22.977Z,2.70
2022-12-07T17:24:52.064Z,2.50
2022-12-07T17:27:18.829Z,2.50
2022-12-07T17:29:45.551Z,2.50
2022-12-07T17:32:12.402Z,2.50
2022-12-07T17:34:39.420Z,3.00
2022-12-07T17:37:06.247Z,2.50
2022-12-07T17:39:33.036Z,2.60
2022-12-07T17:42:18.579Z,2.50
2022-12-07T17:44:47.729Z,2.50
2022-12-07T17:47:16.297Z,2.70
2022-12-07T17:49:43.185Z,2.40
2022-12-07T17:52:33.516Z,2.50
2022-12-07T17:55:00.683Z,2.60
2022-12-07T17:57:27.633Z,2.60
2022-12-07T17:59:55.534Z,2.60
2022-12-07T18:02:22.275Z,2.50
2022-12-07T18:04:49.030Z,3.20
2022-12-07T18:07:18.155Z,2.50
2022-12-07T18:09:44.905Z,2.50
2022-12-07T18:12:14.128Z,2.50
2022-12-07T18:14:43.266Z,2.60
2022-12-07T18:17:10.123Z,2.60
2022-12-07T18:19:37.366Z,3.30
2022-12-07T18:22:04.946Z,2.60
2022-12-07T18:24:36.759Z,2.70
2022-12-07T18:27:05.439Z,2.60
2022-12-07T18:29:34.689Z,2.60
2022-12-07T18:32:04.993Z,2.60
2022-12-07T18:34:33.987Z,2.60
2022-12-07T18:37:00.805Z,2.60
2022-12-07T18:39:33.314Z,2.60
2022-12-07T18:42:00.906Z,2.60
2022-12-07T18:44:27.893Z,2.60
2022-12-07T18:46:57.349Z,2.70
2022-12-07T18:49:26.269Z,2.70
2022-12-07T18:51:53.078Z,2.60
2022-12-07T18:54:19.872Z,2.70
2022-12-07T18:56:46.610Z,2.70
2022-12-07T18:59:34.660Z,2.70
2022-12-07T19:02:01.475Z,2.70
2022-12-07T19:04:28.523Z,2.80
2022-12-07T19:06:55.782Z,2.70
2022-12-07T19:09:24.645Z,2.80
2022-12-07T19:11:51.915Z,2.80
2022-12-07T19:14:26.145Z,2.80
2022-12-07T19:16:54.921Z,2.70
2022-12-07T19:19:25.212Z,2.70
2022-12-07T19:21:54.185Z,3.20
2022-12-07T19:24:24.053Z,2.70
2022-12-07T19:26:51.959Z,2.80
2022-12-07T19:29:18.931Z,2.70
2022-12-07T19:31:45.793Z,2.80
2022-12-07T19:34:13.317Z,2.70
2022-12-07T19:36:40.205Z,2.60
2022-12-07T19:39:14.350Z,2.70
2022-12-07T19:41:44.887Z,2.70
2022-12-07T19:44:18.445Z,2.70
2022-12-07T19:46:46.858Z,2.60
2022-12-07T19:49:16.121Z,2.50
2022-12-07T19:51:44.113Z,2.50
2022-12-07T19:54:15.130Z,2.80
2022-12-07T19:56:42.170Z,2.40
2022-12-07T19:59:09.099Z,2.40
2022-12-07T20:01:38.093Z,2.30
2022-12-07T20:04:08.075Z,2.40
2022-12-07T20:06:34.796Z,2.40
2022-12-07T20:09:04.036Z,2.30
2022-12-07T20:11:52.072Z,2.40
2022-12-07T20:14:18.816Z,2.30
2022-12-07T20:16:46.003Z,2.30
2022-12-07T20:19:13.518Z,2.30
2022-12-07T20:21:43.311Z,2.30
2022-12-07T20:24:17.459Z,2.70
2022-12-07T20:26:44.574Z,2.10
2022-12-07T20:29:18.483Z,2.00
2022-12-07T20:31:48.290Z,2.70
2022-12-07T20:34:17.939Z,2.00
2022-12-07T20:36:44.729Z,2.00
2022-12-07T20:39:11.575Z,2.00
2022-12-07T20:41:57.310Z,1.90
2022-12-07T20:44:24.162Z,2.00
2022-12-07T20:46:50.913Z,1.90
2022-12-07T20:49:18.440Z,1.90
2022-12-07T20:51:45.443Z,1.90
2022-12-07T20:54:12.895Z,1.80
2022-12-07T20:56:39.910Z,1.80
2022-12-07T20:59:09.735Z,1.70
2022-12-07T21:01:37.132Z,1.80
2022-12-07T21:04:06.493Z,1.70
2022-12-07T21:06:33.234Z,1.80
2022-12-07T21:09:00.326Z,1.80
2022-12-07T21:11:27.985Z,2.10
2022-12-07T21:13:56.938Z,1.80
2022-12-07T21:16:25.638Z,1.70
2022-12-07T21:18:53.908Z,1.80
2022-12-07T21:21:20.755Z,1.70
2022-12-07T21:23:48.277Z,1.80
2022-12-07T21:26:17.036Z,1.60
2022-12-07T21:28:43.877Z,1.50
2022-12-07T21:31:13.359Z,1.40
2022-12-07T21:33:40.607Z,1.40
2022-12-07T21:36:08.358Z,1.30
2022-12-07T21:38:37.563Z,1.40
2022-12-07T21:41:14.740Z,1.40
2022-12-07T21:43:42.039Z,1.40
2022-12-07T21:46:11.638Z,1.50
2022-12-07T21:48:38.491Z,1.50
2022-12-07T21:51:06.190Z,1.50
2022-12-07T21:53:35.767Z,1.50
2022-12-07T21:56:03.169Z,1.40
2022-12-07T21:58:30.759Z,1.40
2022-12-07T22:00:58.916Z,1.40
2022-12-07T22:03:25.764Z,1.40
2022-12-07T22:05:52.561Z,1.40
2022-12-07T22:08:19.493Z,1.30
2022-12-07T22:10:46.268Z,1.30
2022-12-07T22:13:15.399Z,1.30
2022-12-07T22:15:42.185Z,1.70
2022-12-07T22:18:08.980Z,1.30
2022-12-07T22:20:35.922Z,1.40
2022-12-07T22:23:05.166Z,1.40
2022-12-07T22:25:31.874Z,1.50
2022-12-07T22:27:58.652Z,1.50
2022-12-07T22:30:25.507Z,1.60
2022-12-07T22:32:52.429Z,2.30
2022-12-07T22:35:19.258Z,1.60
2022-12-07T22:37:45.999Z,1.60
2022-12-07T22:40:16.130Z,1.50
2022-12-07T22:42:42.857Z,1.50
2022-12-07T22:45:09.876Z,1.60
2022-12-07T22:47:36.605Z,1.70
2022-12-07T22:50:05.468Z,1.70
2022-12-07T22:52:32.249Z,1.60
2022-12-07T22:54:58.950Z,1.60
2022-12-07T22:57:25.674Z,1.60
2022-12-07T22:59:52.383Z,1.70
2022-12-07T23:02:21.435Z,1.60
2022-12-07T23:04:48.142Z,1.70
2022-12-07T23:07:17.440Z,1.80
2022-12-07T23:09:44.191Z,1.80
2022-12-07T23:12:32.003Z,1.80
2022-12-07T23:14:58.723Z,1.70
2022-12-07T23:17:25.487Z,1.90
2022-12-07T23:19:56.231Z,1.80
2022-12-07T23:22:23.609Z,1.70
2022-12-07T23:24:52.601Z,1.80
2022-12-07T23:27:21.638Z,1.70
2022-12-07T23:29:48.380Z,1.70
2022-12-07T23:32:15.119Z,1.70
2022-12-07T23:34:43.731Z,1.70
2022-12-07T23:37:10.435Z,1.70
2022-12-07T23:39:37.165Z,1.60
2022-12-07T23:42:03.995Z,1.60
2022-12-07T23:44:30.743Z,1.60
2022-12-07T23:46:57.493Z,1.60
2022-12-07T23:49:24.242Z,1.70
2022-12-07T23:51:53.353Z,1.60
2022-12-07T23:54:20.094Z,1.80
2022-12-07T23:56:46.836Z,1.80
2022-12-07T23:59:13.577Z,1.90
